createdAt,value
2018-08-23T00:00:30.598Z,0
2018-08-23T00:01:33.088Z,0
2018-08-23T00:02:35.850Z,0
2018-08-23T00:03:38.031Z,0
2018-08-23T00:04:40.069Z,0
2018-08-23T00:05:42.154Z,0
2018-08-23T00:06:44.259Z,0
2018-08-23T00:07:46.364Z,0
2018-08-23T00:08:49.275Z,0
2018-08-23T00:09:51.760Z,0
2018-08-23T00:10:53.845Z,0
2018-08-23T00:11:55.967Z,0
2018-08-23T00:12:58.063Z,0
2018-08-23T00:14:00.152Z,0
2018-08-23T00:15:02.252Z,0
2018-08-23T00:16:04.348Z,0
2018-08-23T00:17:06.846Z,0
2018-08-23T00:18:09.248Z,0
2018-08-23T00:19:11.954Z,0
2018-08-23T00:20:14.036Z,0
2018-08-23T00:21:16.142Z,0
2018-08-23T00:22:18.238Z,0
2018-08-23T00:23:20.336Z,0
2018-08-23T00:24:22.833Z,0
2018-08-23T00:25:24.947Z,0
2018-08-23T00:26:27.699Z,0
2018-08-23T00:27:29.796Z,0
2018-08-23T00:28:31.882Z,0
2018-08-23T00:29:34.280Z,0
2018-08-23T00:30:36.697Z,0
2018-08-23T00:31:38.784Z,0
2018-08-23T00:32:41.268Z,0
2018-08-23T00:33:43.371Z,0
2018-08-23T00:34:45.474Z,0
2018-08-23T00:35:47.582Z,0
2018-08-23T00:36:49.666Z,0
2018-08-23T00:37:51.770Z,0
2018-08-23T00:38:53.885Z,0
2018-08-23T00:39:55.975Z,0
2018-08-23T00:40:58.071Z,0
2018-08-23T00:42:00.551Z,0
2018-08-23T00:43:03.044Z,0
2018-08-23T00:44:05.129Z,0
2018-08-23T00:45:07.250Z,0
2018-08-23T00:46:09.327Z,0
2018-08-23T00:47:11.726Z,0
2018-08-23T00:48:14.106Z,0
2018-08-23T00:49:16.199Z,0
2018-08-23T00:50:18.295Z,0
2018-08-23T00:51:20.377Z,0
2018-08-23T00:52:22.487Z,0
2018-08-23T00:53:24.599Z,0
2018-08-23T00:54:26.689Z,0
2018-08-23T00:55:29.229Z,0
2018-08-23T00:56:31.287Z,0
2018-08-23T00:57:33.387Z,0
2018-08-23T00:58:35.481Z,0
2018-08-23T00:59:37.599Z,0
2018-08-23T01:00:39.674Z,0
2018-08-23T01:01:41.785Z,0
2018-08-23T01:02:43.886Z,0
2018-08-23T01:03:45.967Z,0
2018-08-23T01:04:48.455Z,0
2018-08-23T01:05:50.956Z,0
2018-08-23T01:06:53.356Z,0
2018-08-23T01:07:55.467Z,0
2018-08-23T01:08:57.551Z,0
2018-08-23T01:09:59.646Z,0
2018-08-23T01:11:01.748Z,0
2018-08-23T01:12:03.831Z,0
2018-08-23T01:13:05.939Z,0
2018-08-23T01:14:08.032Z,0
2018-08-23T01:15:10.145Z,0
2018-08-23T01:16:12.236Z,0
2018-08-23T01:17:14.345Z,0
2018-08-23T01:18:16.423Z,0
2018-08-23T01:19:18.515Z,0
2018-08-23T01:20:20.620Z,0
2018-08-23T01:21:23.002Z,0
2018-08-23T01:22:25.112Z,0
2018-08-23T01:23:27.210Z,0
2018-08-23T01:24:29.308Z,0
2018-08-23T01:25:31.407Z,0
2018-08-23T01:26:33.787Z,0
2018-08-23T01:27:36.188Z,0
2018-08-23T01:28:38.562Z,0
2018-08-23T01:29:40.653Z,0
2018-08-23T01:30:43.130Z,0
2018-08-23T01:31:45.244Z,0
2018-08-23T01:32:47.347Z,0
2018-08-23T01:33:49.458Z,0
2018-08-23T01:34:51.550Z,0
2018-08-23T01:35:53.634Z,0
2018-08-23T01:36:56.020Z,0
2018-08-23T01:37:58.129Z,0
2018-08-23T01:39:00.536Z,0
2018-08-23T01:40:02.632Z,0
2018-08-23T01:41:04.728Z,0
2018-08-23T01:42:07.111Z,0
2018-08-23T01:43:09.235Z,0
2018-08-23T01:44:11.382Z,0
2018-08-23T01:45:13.512Z,0
2018-08-23T01:46:15.615Z,0
2018-08-23T01:47:17.719Z,0
2018-08-23T01:48:19.812Z,0
2018-08-23T01:49:22.611Z,0
2018-08-23T01:50:24.679Z,0
2018-08-23T01:51:26.796Z,0
2018-08-23T01:52:28.896Z,0
2018-08-23T01:53:31.290Z,0
2018-08-23T01:54:33.392Z,0
2018-08-23T01:55:35.484Z,0
2018-08-23T01:56:37.568Z,0
2018-08-23T01:57:39.668Z,0
2018-08-23T01:58:42.040Z,0
2018-08-23T01:59:44.120Z,0
2018-08-23T02:00:46.220Z,0
2018-08-23T02:01:48.304Z,0
2018-08-23T02:02:50.391Z,0
2018-08-23T02:03:52.495Z,0
2018-08-23T02:04:54.575Z,0
2018-08-23T02:05:56.680Z,0
2018-08-23T02:06:58.775Z,0
2018-08-23T02:08:01.188Z,0
2018-08-23T02:09:03.896Z,0
2018-08-23T02:10:06.268Z,0
2018-08-23T02:11:08.364Z,0
2018-08-23T02:12:10.759Z,0
2018-08-23T02:13:13.173Z,0
2018-08-23T02:14:15.255Z,0
2018-08-23T02:15:17.663Z,0
2018-08-23T02:16:20.423Z,0
2018-08-23T02:17:22.514Z,0
2018-08-23T02:18:24.626Z,0
2018-08-23T02:19:26.714Z,0
2018-08-23T02:20:28.814Z,0
2018-08-23T02:21:30.904Z,0
2018-08-23T02:22:32.996Z,0
2018-08-23T02:23:35.490Z,0
2018-08-23T02:24:37.579Z,0
2018-08-23T02:25:39.691Z,0
2018-08-23T02:26:41.768Z,0
2018-08-23T02:27:43.862Z,0
2018-08-23T02:28:46.343Z,0
2018-08-23T02:29:48.732Z,0
2018-08-23T02:30:51.101Z,0
2018-08-23T02:31:53.195Z,0
2018-08-23T02:32:55.279Z,0
2018-08-23T02:33:57.399Z,0
2018-08-23T02:34:59.487Z,0
2018-08-23T02:36:02.186Z,0
2018-08-23T02:37:04.596Z,0
2018-08-23T02:38:07.087Z,0
2018-08-23T02:39:09.850Z,0
2018-08-23T02:40:12.633Z,0
2018-08-23T02:41:14.737Z,0
2018-08-23T02:42:16.830Z,0
2018-08-23T02:43:18.928Z,0
2018-08-23T02:44:21.039Z,0
2018-08-23T02:45:23.428Z,0
2018-08-23T02:46:25.522Z,0
2018-08-23T02:47:28.027Z,0
2018-08-23T02:48:30.127Z,0
2018-08-23T02:49:32.224Z,0
2018-08-23T02:50:34.914Z,0
2018-08-23T02:51:37.580Z,0
2018-08-23T02:52:39.681Z,0
2018-08-23T02:53:42.465Z,0
2018-08-23T02:54:45.155Z,0
2018-08-23T02:55:47.241Z,0
2018-08-23T02:56:49.644Z,0
2018-08-23T02:57:52.055Z,0
2018-08-23T02:58:54.149Z,0
2018-08-23T02:59:56.259Z,0
2018-08-23T03:00:58.350Z,0
2018-08-23T03:02:01.134Z,0
2018-08-23T03:03:03.521Z,0
2018-08-23T03:04:05.636Z,0
2018-08-23T03:05:08.041Z,0
2018-08-23T03:06:10.435Z,0
2018-08-23T03:07:12.839Z,0
2018-08-23T03:08:15.213Z,0
2018-08-23T03:09:17.315Z,0
2018-08-23T03:10:19.422Z,0
2018-08-23T03:11:21.532Z,0
2018-08-23T03:12:24.308Z,0
2018-08-23T03:13:26.401Z,0
2018-08-23T03:14:28.893Z,0
2018-08-23T03:15:30.983Z,0
2018-08-23T03:16:33.765Z,0
2018-08-23T03:17:35.875Z,0
2018-08-23T03:18:37.974Z,0
2018-08-23T03:19:40.065Z,0
2018-08-23T03:20:42.178Z,0
2018-08-23T03:21:44.275Z,0
2018-08-23T03:22:46.372Z,0
2018-08-23T03:23:48.478Z,0
2018-08-23T03:24:50.953Z,0
2018-08-23T03:25:53.054Z,0
2018-08-23T03:26:55.157Z,0
2018-08-23T03:27:58.233Z,0
2018-08-23T03:29:00.706Z,0
2018-08-23T03:30:03.112Z,0
2018-08-23T03:31:05.672Z,0
2018-08-23T03:32:08.077Z,0
2018-08-23T03:33:10.199Z,0
2018-08-23T03:34:12.291Z,0
2018-08-23T03:35:14.390Z,0
2018-08-23T03:36:16.492Z,0
2018-08-23T03:37:18.608Z,0
2018-08-23T03:38:20.699Z,0
2018-08-23T03:39:22.806Z,0
2018-08-23T03:40:24.911Z,0
2018-08-23T03:41:27.383Z,0
2018-08-23T03:42:30.092Z,0
2018-08-23T03:43:32.480Z,0
2018-08-23T03:44:34.961Z,0
2018-08-23T03:45:38.023Z,0
2018-08-23T03:46:40.425Z,0
2018-08-23T03:47:42.525Z,0
2018-08-23T03:48:44.635Z,0
2018-08-23T03:49:46.738Z,0
2018-08-23T03:50:48.833Z,0
2018-08-23T03:51:51.224Z,0
2018-08-23T03:52:53.337Z,0
2018-08-23T03:53:55.748Z,0
2018-08-23T03:54:57.852Z,0
2018-08-23T03:55:59.952Z,0
2018-08-23T03:57:02.429Z,0
2018-08-23T03:58:05.125Z,0
2018-08-23T03:59:07.221Z,0
2018-08-23T04:00:09.318Z,0
2018-08-23T04:01:11.796Z,0
2018-08-23T04:02:14.306Z,0
2018-08-23T04:03:16.400Z,1
2018-08-23T04:04:18.533Z,1
2018-08-23T04:05:20.611Z,1
2018-08-23T04:06:22.702Z,1
2018-08-23T04:07:24.807Z,1
2018-08-23T04:08:27.295Z,1
2018-08-23T04:09:29.683Z,1
2018-08-23T04:10:31.765Z,1
2018-08-23T04:11:34.162Z,2
2018-08-23T04:12:36.261Z,2
2018-08-23T04:13:38.649Z,2
2018-08-23T04:14:41.376Z,2
2018-08-23T04:15:43.468Z,2
2018-08-23T04:16:45.570Z,2
2018-08-23T04:17:47.681Z,3
2018-08-23T04:18:49.779Z,3
2018-08-23T04:19:51.873Z,3
2018-08-23T04:20:54.294Z,3
2018-08-23T04:21:56.694Z,3
2018-08-23T04:22:59.358Z,4
2018-08-23T04:24:01.788Z,4
2018-08-23T04:25:04.286Z,4
2018-08-23T04:26:06.390Z,4
2018-08-23T04:27:08.766Z,5
2018-08-23T04:28:10.867Z,5
2018-08-23T04:29:12.971Z,5
2018-08-23T04:30:15.060Z,5
2018-08-23T04:31:17.171Z,6
2018-08-23T04:32:19.269Z,6
2018-08-23T04:33:21.664Z,6
2018-08-23T04:34:24.052Z,6
2018-08-23T04:35:26.171Z,7
2018-08-23T04:36:28.556Z,7
2018-08-23T04:37:30.948Z,7
2018-08-23T04:38:33.446Z,8
2018-08-23T04:39:35.532Z,8
2018-08-23T04:40:37.642Z,8
2018-08-23T04:41:39.742Z,9
2018-08-23T04:42:41.852Z,9
2018-08-23T04:43:44.334Z,9
2018-08-23T04:44:46.735Z,9
2018-08-23T04:45:48.830Z,10
2018-08-23T04:46:50.926Z,10
2018-08-23T04:47:53.341Z,10
2018-08-23T04:48:55.432Z,11
2018-08-23T04:49:57.825Z,11
2018-08-23T04:50:59.939Z,11
2018-08-23T04:52:02.045Z,12
2018-08-23T04:53:04.134Z,12
2018-08-23T04:54:06.241Z,12
2018-08-23T04:55:08.331Z,12
2018-08-23T04:56:10.433Z,13
2018-08-23T04:57:12.554Z,13
2018-08-23T04:58:14.952Z,13
2018-08-23T04:59:17.423Z,13
2018-08-23T05:00:19.560Z,13
2018-08-23T05:01:21.658Z,13
2018-08-23T05:02:23.756Z,13
2018-08-23T05:03:25.857Z,14
2018-08-23T05:04:27.970Z,14
2018-08-23T05:05:30.064Z,14
2018-08-23T05:06:32.160Z,15
2018-08-23T05:07:34.252Z,15
2018-08-23T05:08:37.040Z,15
2018-08-23T05:09:39.132Z,16
2018-08-23T05:10:41.227Z,16
2018-08-23T05:11:43.342Z,16
2018-08-23T05:12:46.011Z,17
2018-08-23T05:13:48.120Z,17
2018-08-23T05:14:50.222Z,17
2018-08-23T05:15:52.623Z,18
2018-08-23T05:16:54.708Z,18
2018-08-23T05:17:57.213Z,18
2018-08-23T05:18:59.609Z,19
2018-08-23T05:20:02.099Z,19
2018-08-23T05:21:04.886Z,19
2018-08-23T05:22:06.976Z,19
2018-08-23T05:23:09.513Z,20
2018-08-23T05:24:11.899Z,20
2018-08-23T05:25:14.007Z,20
2018-08-23T05:26:16.100Z,21
2018-08-23T05:27:18.590Z,21
2018-08-23T05:28:21.272Z,21
2018-08-23T05:29:23.656Z,21
2018-08-23T05:30:25.761Z,22
2018-08-23T05:31:27.862Z,22
2018-08-23T05:32:29.957Z,22
2018-08-23T05:33:32.089Z,23
2018-08-23T05:34:34.184Z,23
2018-08-23T05:35:36.282Z,23
2018-08-23T05:36:38.391Z,23
2018-08-23T05:37:40.478Z,24
2018-08-23T05:38:42.585Z,24
2018-08-23T05:39:44.692Z,24
2018-08-23T05:40:46.808Z,25
2018-08-23T05:41:49.210Z,25
2018-08-23T05:42:51.305Z,25
2018-08-23T05:43:53.411Z,25
2018-08-23T05:44:55.906Z,25
2018-08-23T05:45:58.283Z,25
2018-08-23T05:47:00.394Z,25
2018-08-23T05:48:02.890Z,26
2018-08-23T05:49:04.993Z,26
2018-08-23T05:50:07.081Z,26
2018-08-23T05:51:09.190Z,26
2018-08-23T05:52:11.604Z,27
2018-08-23T05:53:13.704Z,27
2018-08-23T05:54:16.107Z,27
2018-08-23T05:55:18.199Z,27
2018-08-23T05:56:20.298Z,29
2018-08-23T05:57:22.406Z,28
2018-08-23T05:58:24.509Z,28
2018-08-23T05:59:26.599Z,29
2018-08-23T06:00:28.701Z,29
2018-08-23T06:01:30.798Z,29
2018-08-23T06:02:32.901Z,29
2018-08-23T06:03:35.302Z,30
2018-08-23T06:04:37.405Z,30
2018-08-23T06:05:39.496Z,30
2018-08-23T06:06:41.612Z,30
2018-08-23T06:07:43.709Z,31
2018-08-23T06:08:45.809Z,31
2018-08-23T06:09:47.923Z,31
2018-08-23T06:10:50.011Z,32
2018-08-23T06:11:52.114Z,32
2018-08-23T06:12:54.215Z,32
2018-08-23T06:13:56.324Z,32
2018-08-23T06:14:58.413Z,33
2018-08-23T06:16:00.525Z,33
2018-08-23T06:17:02.640Z,33
2018-08-23T06:18:04.734Z,34
2018-08-23T06:19:06.862Z,34
2018-08-23T06:20:10.248Z,34
2018-08-23T06:21:12.197Z,35
2018-08-23T06:22:14.297Z,35
2018-08-23T06:23:16.414Z,35
2018-08-23T06:24:18.513Z,36
2018-08-23T06:25:21.295Z,36
2018-08-23T06:26:23.401Z,37
2018-08-23T06:27:25.513Z,37
2018-08-23T06:28:27.893Z,37
2018-08-23T06:29:30.385Z,38
2018-08-23T06:30:32.480Z,38
2018-08-23T06:31:34.589Z,39
2018-08-23T06:32:36.994Z,39
2018-08-23T06:33:40.708Z,39
2018-08-23T06:34:42.695Z,40
2018-08-23T06:35:44.962Z,40
2018-08-23T06:36:46.891Z,40
2018-08-23T06:37:48.998Z,40
2018-08-23T06:38:51.195Z,41
2018-08-23T06:39:53.204Z,43
2018-08-23T06:40:55.607Z,42
2018-08-23T06:41:58.001Z,44
2018-08-23T06:43:00.097Z,44
2018-08-23T06:44:02.218Z,45
2018-08-23T06:45:04.318Z,45
2018-08-23T06:46:06.907Z,45
2018-08-23T06:47:08.949Z,45
2018-08-23T06:48:11.457Z,45
2018-08-23T06:49:13.554Z,46
2018-08-23T06:50:15.656Z,47
2018-08-23T06:51:18.724Z,48
2018-08-23T06:52:20.719Z,49
2018-08-23T06:53:22.813Z,49
2018-08-23T06:54:24.918Z,50
2018-08-23T06:55:27.033Z,51
2018-08-23T06:56:29.422Z,51
2018-08-23T06:57:31.529Z,53
2018-08-23T06:58:33.637Z,55
2018-08-23T06:59:35.745Z,57
2018-08-23T07:00:38.530Z,56
2018-08-23T07:01:40.638Z,55
2018-08-23T07:02:43.040Z,51
2018-08-23T07:03:45.501Z,52
2018-08-23T07:04:47.995Z,51
2018-08-23T07:05:50.114Z,50
2018-08-23T07:06:52.831Z,50
2018-08-23T07:07:54.805Z,51
2018-08-23T07:08:56.905Z,52
2018-08-23T07:09:59.009Z,53
2018-08-23T07:11:01.117Z,53
2018-08-23T07:12:03.236Z,55
2018-08-23T07:13:05.330Z,57
2018-08-23T07:14:07.752Z,57
2018-08-23T07:15:09.858Z,57
2018-08-23T07:16:11.956Z,57
2018-08-23T07:17:14.215Z,56
2018-08-23T07:18:16.179Z,56
2018-08-23T07:19:18.649Z,58
2018-08-23T07:20:21.053Z,57
2018-08-23T07:21:23.175Z,57
2018-08-23T07:22:25.683Z,58
2018-08-23T07:23:28.134Z,60
2018-08-23T07:24:30.251Z,64
2018-08-23T07:25:32.346Z,64
2018-08-23T07:26:34.459Z,64
2018-08-23T07:27:36.561Z,63
2018-08-23T07:28:39.546Z,64
2018-08-23T07:29:41.666Z,63
2018-08-23T07:30:43.758Z,59
2018-08-23T07:31:45.859Z,61
2018-08-23T07:32:47.963Z,63
2018-08-23T07:33:50.378Z,64
2018-08-23T07:34:52.481Z,63
2018-08-23T07:35:54.977Z,64
2018-08-23T07:36:57.093Z,65
2018-08-23T07:37:59.197Z,65
2018-08-23T07:39:01.294Z,64
2018-08-23T07:40:03.714Z,65
2018-08-23T07:41:05.812Z,67
2018-08-23T07:42:07.920Z,68
2018-08-23T07:43:10.907Z,67
2018-08-23T07:44:13.430Z,68
2018-08-23T07:45:16.204Z,69
2018-08-23T07:46:18.923Z,69
2018-08-23T07:47:21.028Z,70
2018-08-23T07:48:23.135Z,70
2018-08-23T07:49:25.277Z,72
2018-08-23T07:50:27.375Z,75
2018-08-23T07:51:29.450Z,75
2018-08-23T07:52:31.626Z,75
2018-08-23T07:53:33.672Z,79
2018-08-23T07:54:35.769Z,81
2018-08-23T07:55:37.877Z,83
2018-08-23T07:56:39.984Z,86
2018-08-23T07:57:42.088Z,87
2018-08-23T07:58:44.208Z,87
2018-08-23T07:59:46.701Z,86
2018-08-23T08:00:48.807Z,81
2018-08-23T08:01:50.914Z,85
2018-08-23T08:02:53.035Z,96
2018-08-23T08:03:55.135Z,84
2018-08-23T08:04:57.532Z,136
2018-08-23T08:05:59.641Z,201
2018-08-23T08:07:01.738Z,195
2018-08-23T08:08:03.861Z,177
2018-08-23T08:09:05.967Z,203
2018-08-23T08:10:08.068Z,202
2018-08-23T08:11:10.178Z,190
2018-08-23T08:12:12.340Z,95
2018-08-23T08:13:14.411Z,200
2018-08-23T08:14:16.506Z,199
2018-08-23T08:15:19.557Z,191
2018-08-23T08:16:21.403Z,189
2018-08-23T08:17:23.517Z,113
2018-08-23T08:18:25.610Z,173
2018-08-23T08:19:27.734Z,215
2018-08-23T08:20:29.841Z,173
2018-08-23T08:21:32.002Z,220
2018-08-23T08:22:34.067Z,231
2018-08-23T08:23:36.160Z,245
2018-08-23T08:24:38.286Z,239
2018-08-23T08:25:40.397Z,183
2018-08-23T08:26:42.515Z,250
2018-08-23T08:27:44.612Z,105
2018-08-23T08:28:46.723Z,207
2018-08-23T08:29:48.830Z,106
2018-08-23T08:30:50.930Z,242
2018-08-23T08:31:53.054Z,112
2018-08-23T08:32:55.155Z,114
2018-08-23T08:33:57.546Z,141
2018-08-23T08:34:59.945Z,260
2018-08-23T08:36:02.071Z,269
2018-08-23T08:37:04.173Z,267
2018-08-23T08:38:06.283Z,251
2018-08-23T08:39:08.397Z,230
2018-08-23T08:40:10.491Z,145
2018-08-23T08:41:12.610Z,247
2018-08-23T08:42:15.007Z,271
2018-08-23T08:43:17.110Z,265
2018-08-23T08:44:19.527Z,278
2018-08-23T08:45:21.646Z,171
2018-08-23T08:46:23.752Z,289
2018-08-23T08:47:25.885Z,228
2018-08-23T08:48:28.429Z,277
2018-08-23T08:49:30.534Z,281
2018-08-23T08:50:33.045Z,281
2018-08-23T08:51:35.359Z,273
2018-08-23T08:52:37.452Z,287
2018-08-23T08:53:39.859Z,281
2018-08-23T08:54:41.971Z,292
2018-08-23T08:55:44.073Z,295
2018-08-23T08:56:46.662Z,294
2018-08-23T08:57:49.233Z,291
2018-08-23T08:58:51.292Z,287
2018-08-23T08:59:53.394Z,267
2018-08-23T09:00:55.911Z,156
2018-08-23T09:01:58.328Z,307
2018-08-23T09:03:01.245Z,217
2018-08-23T09:04:03.313Z,272
2018-08-23T09:05:05.408Z,142
2018-08-23T09:06:07.536Z,134
2018-08-23T09:07:09.651Z,234
2018-08-23T09:08:12.073Z,238
2018-08-23T09:09:14.468Z,321
2018-08-23T09:10:16.587Z,246
2018-08-23T09:11:18.703Z,291
2018-08-23T09:12:21.125Z,335
2018-08-23T09:13:23.658Z,337
2018-08-23T09:14:26.048Z,299
2018-08-23T09:15:28.158Z,331
2018-08-23T09:16:30.277Z,313
2018-08-23T09:17:32.679Z,314
2018-08-23T09:18:35.518Z,315
2018-08-23T09:19:37.947Z,301
2018-08-23T09:20:40.151Z,311
2018-08-23T09:21:42.159Z,316
2018-08-23T09:22:44.276Z,308
2018-08-23T09:23:46.679Z,312
2018-08-23T09:24:48.785Z,298
2018-08-23T09:25:51.208Z,272
2018-08-23T09:26:53.612Z,304
2018-08-23T09:27:55.723Z,311
2018-08-23T09:28:57.832Z,305
2018-08-23T09:29:59.956Z,314
2018-08-23T09:31:02.062Z,328
2018-08-23T09:32:04.184Z,307
2018-08-23T09:33:06.580Z,312
2018-08-23T09:34:08.706Z,320
2018-08-23T09:35:11.319Z,325
2018-08-23T09:36:13.308Z,324
2018-08-23T09:37:15.434Z,322
2018-08-23T09:38:17.540Z,317
2018-08-23T09:39:20.368Z,318
2018-08-23T09:40:22.494Z,333
2018-08-23T09:41:24.904Z,338
2018-08-23T09:42:27.010Z,353
2018-08-23T09:43:29.429Z,340
2018-08-23T09:44:31.545Z,341
2018-08-23T09:45:33.657Z,344
2018-08-23T09:46:35.786Z,344
2018-08-23T09:47:37.893Z,306
2018-08-23T09:48:40.405Z,348
2018-08-23T09:49:42.528Z,334
2018-08-23T09:50:44.682Z,306
2018-08-23T09:51:46.758Z,342
2018-08-23T09:52:49.285Z,347
2018-08-23T09:53:51.391Z,328
2018-08-23T09:54:53.508Z,334
2018-08-23T09:55:55.933Z,349
2018-08-23T09:56:58.434Z,352
2018-08-23T09:58:01.226Z,351
2018-08-23T09:59:03.968Z,234
2018-08-23T10:00:06.080Z,358
2018-08-23T10:01:08.195Z,332
2018-08-23T10:02:10.716Z,300
2018-08-23T10:03:12.819Z,356
2018-08-23T10:04:15.348Z,346
2018-08-23T10:05:17.441Z,355
2018-08-23T10:06:19.566Z,379
2018-08-23T10:07:21.975Z,375
2018-08-23T10:08:24.419Z,349
2018-08-23T10:09:26.535Z,366
2018-08-23T10:10:28.669Z,368
2018-08-23T10:11:31.169Z,364
2018-08-23T10:12:33.492Z,369
2018-08-23T10:13:35.612Z,362
2018-08-23T10:14:37.737Z,352
2018-08-23T10:15:39.847Z,338
2018-08-23T10:16:41.991Z,319
2018-08-23T10:17:44.105Z,341
2018-08-23T10:18:46.222Z,352
2018-08-23T10:19:48.357Z,357
2018-08-23T10:20:50.464Z,348
2018-08-23T10:21:52.978Z,336
2018-08-23T10:22:55.500Z,347
2018-08-23T10:23:57.616Z,347
2018-08-23T10:24:59.726Z,339
2018-08-23T10:26:01.846Z,331
2018-08-23T10:27:03.956Z,352
2018-08-23T10:28:06.088Z,350
2018-08-23T10:29:08.209Z,319
2018-08-23T10:30:10.334Z,329
2018-08-23T10:31:12.725Z,323
2018-08-23T10:32:15.953Z,331
2018-08-23T10:33:17.828Z,333
2018-08-23T10:34:19.948Z,325
2018-08-23T10:35:22.078Z,338
2018-08-23T10:36:24.861Z,346
2018-08-23T10:37:26.985Z,334
2018-08-23T10:38:29.403Z,340
2018-08-23T10:39:31.530Z,358
2018-08-23T10:40:33.633Z,368
2018-08-23T10:41:35.764Z,358
2018-08-23T10:42:38.179Z,349
2018-08-23T10:43:40.887Z,353
2018-08-23T10:44:44.008Z,354
2018-08-23T10:45:46.032Z,362
2018-08-23T10:46:48.153Z,379
2018-08-23T10:47:50.289Z,369
2018-08-23T10:48:52.751Z,363
2018-08-23T10:49:54.881Z,375
2018-08-23T10:50:57.077Z,366
2018-08-23T10:51:59.119Z,367
2018-08-23T10:53:01.255Z,366
2018-08-23T10:54:03.365Z,348
2018-08-23T10:55:05.778Z,336
2018-08-23T10:56:07.906Z,330
2018-08-23T10:57:10.025Z,333
2018-08-23T10:58:12.138Z,350
2018-08-23T10:59:14.654Z,378
2018-08-23T11:00:17.463Z,365
2018-08-23T11:01:19.593Z,371
2018-08-23T11:02:22.032Z,378
2018-08-23T11:03:24.153Z,359
2018-08-23T11:04:26.264Z,357
2018-08-23T11:05:28.400Z,375
2018-08-23T11:06:30.514Z,359
2018-08-23T11:07:32.634Z,340
2018-08-23T11:08:35.152Z,345
2018-08-23T11:09:37.305Z,352
2018-08-23T11:10:40.036Z,343
2018-08-23T11:11:42.159Z,339
2018-08-23T11:12:44.287Z,346
2018-08-23T11:13:46.398Z,341
2018-08-23T11:14:48.531Z,336
2018-08-23T11:15:50.654Z,335
2018-08-23T11:16:52.789Z,330
2018-08-23T11:17:54.908Z,330
2018-08-23T11:18:57.020Z,327
2018-08-23T11:19:59.142Z,326
2018-08-23T11:21:01.271Z,328
2018-08-23T11:22:03.400Z,341
2018-08-23T11:23:05.916Z,336
2018-08-23T11:24:08.008Z,342
2018-08-23T11:25:10.132Z,364
2018-08-23T11:26:12.239Z,369
2018-08-23T11:27:15.061Z,380
2018-08-23T11:28:17.185Z,380
2018-08-23T11:29:19.293Z,362
2018-08-23T11:30:21.412Z,357
2018-08-23T11:31:23.538Z,354
2018-08-23T11:32:25.660Z,346
2018-08-23T11:33:27.787Z,342
2018-08-23T11:34:30.213Z,341
2018-08-23T11:35:32.327Z,350
2018-08-23T11:36:34.445Z,360
2018-08-23T11:37:36.575Z,338
2018-08-23T11:38:38.678Z,322
2018-08-23T11:39:40.806Z,319
2018-08-23T11:40:42.940Z,320
2018-08-23T11:41:45.731Z,340
2018-08-23T11:42:47.959Z,351
2018-08-23T11:43:50.291Z,341
2018-08-23T11:44:52.405Z,345
2018-08-23T11:45:54.514Z,349
2018-08-23T11:46:56.653Z,350
2018-08-23T11:47:58.767Z,347
2018-08-23T11:49:00.982Z,328
2018-08-23T11:50:03.498Z,320
2018-08-23T11:51:05.909Z,328
2018-08-23T11:52:08.043Z,335
2018-08-23T11:53:10.670Z,337
2018-08-23T11:54:13.090Z,323
2018-08-23T11:55:15.588Z,319
2018-08-23T11:56:17.716Z,336
2018-08-23T11:57:19.831Z,327
2018-08-23T11:58:21.956Z,339
2018-08-23T11:59:24.382Z,337
2018-08-23T12:00:26.498Z,337
2018-08-23T12:01:28.619Z,320
2018-08-23T12:02:30.733Z,317
2018-08-23T12:03:32.852Z,326
2018-08-23T12:04:34.980Z,320
2018-08-23T12:05:37.774Z,310
2018-08-23T12:06:40.032Z,309
2018-08-23T12:07:42.104Z,318
2018-08-23T12:08:44.579Z,318
2018-08-23T12:09:46.796Z,301
2018-08-23T12:10:48.828Z,299
2018-08-23T12:11:50.935Z,286
2018-08-23T12:12:53.442Z,300
2018-08-23T12:13:55.563Z,296
2018-08-23T12:14:57.671Z,243
2018-08-23T12:15:59.852Z,203
2018-08-23T12:17:02.598Z,223
2018-08-23T12:18:04.722Z,256
2018-08-23T12:19:06.841Z,302
2018-08-23T12:20:09.673Z,339
2018-08-23T12:21:11.783Z,378
2018-08-23T12:22:13.910Z,370
2018-08-23T12:23:16.035Z,352
2018-08-23T12:24:18.146Z,338
2018-08-23T12:25:20.278Z,331
2018-08-23T12:26:22.666Z,317
2018-08-23T12:27:24.677Z,310
2018-08-23T12:28:26.789Z,310
2018-08-23T12:29:28.922Z,313
2018-08-23T12:30:31.036Z,319
2018-08-23T12:31:33.474Z,322
2018-08-23T12:32:35.585Z,307
2018-08-23T12:33:37.988Z,299
2018-08-23T12:34:40.116Z,293
2018-08-23T12:35:42.235Z,317
2018-08-23T12:36:44.749Z,335
2018-08-23T12:37:47.173Z,319
2018-08-23T12:38:49.298Z,289
2018-08-23T12:39:51.718Z,332
2018-08-23T12:40:54.296Z,370
2018-08-23T12:41:56.656Z,365
2018-08-23T12:42:58.775Z,363
2018-08-23T12:44:00.907Z,359
2018-08-23T12:45:03.318Z,349
2018-08-23T12:46:05.443Z,339
2018-08-23T12:47:07.574Z,348
2018-08-23T12:48:09.983Z,331
2018-08-23T12:49:12.151Z,328
2018-08-23T12:50:14.590Z,331
2018-08-23T12:51:16.713Z,339
2018-08-23T12:52:18.834Z,350
2018-08-23T12:53:21.077Z,331
2018-08-23T12:54:23.379Z,328
2018-08-23T12:55:25.503Z,325
2018-08-23T12:56:27.687Z,315
2018-08-23T12:57:29.740Z,305
2018-08-23T12:58:31.869Z,298
2018-08-23T12:59:33.992Z,291
2018-08-23T13:00:36.798Z,297
2018-08-23T13:01:38.985Z,148
2018-08-23T13:02:42.507Z,171
2018-08-23T13:03:44.440Z,277
2018-08-23T13:04:46.844Z,218
2018-08-23T13:05:49.937Z,305
2018-08-23T13:06:52.334Z,317
2018-08-23T13:07:54.748Z,322
2018-08-23T13:08:56.922Z,340
2018-08-23T13:09:59.391Z,349
2018-08-23T13:11:01.880Z,301
2018-08-23T13:12:03.933Z,322
2018-08-23T13:13:06.046Z,193
2018-08-23T13:14:08.167Z,288
2018-08-23T13:15:10.350Z,123
2018-08-23T13:16:12.473Z,120
2018-08-23T13:17:14.957Z,123
2018-08-23T13:18:17.064Z,159
2018-08-23T13:19:19.528Z,279
2018-08-23T13:20:21.940Z,156
2018-08-23T13:21:24.048Z,191
2018-08-23T13:22:26.186Z,238
2018-08-23T13:23:28.303Z,208
2018-08-23T13:24:30.813Z,317
2018-08-23T13:25:32.924Z,342
2018-08-23T13:26:35.060Z,312
2018-08-23T13:27:37.876Z,290
2018-08-23T13:28:39.863Z,228
2018-08-23T13:29:41.994Z,210
2018-08-23T13:30:44.100Z,192
2018-08-23T13:31:46.232Z,313
2018-08-23T13:32:48.352Z,196
2018-08-23T13:33:50.476Z,194
2018-08-23T13:34:52.580Z,215
2018-08-23T13:35:54.707Z,287
2018-08-23T13:36:57.284Z,274
2018-08-23T13:37:59.677Z,266
2018-08-23T13:39:02.123Z,214
2018-08-23T13:40:04.237Z,274
2018-08-23T13:41:06.359Z,210
2018-08-23T13:42:08.877Z,282
2018-08-23T13:43:11.391Z,248
2018-08-23T13:44:13.501Z,273
2018-08-23T13:45:15.635Z,283
2018-08-23T13:46:17.734Z,265
2018-08-23T13:47:19.850Z,266
2018-08-23T13:48:22.432Z,113
2018-08-23T13:49:24.767Z,239
2018-08-23T13:50:26.876Z,236
2018-08-23T13:51:29.015Z,205
2018-08-23T13:52:31.185Z,221
2018-08-23T13:53:33.251Z,119
2018-08-23T13:54:35.393Z,252
2018-08-23T13:55:37.880Z,261
2018-08-23T13:56:40.003Z,266
2018-08-23T13:57:42.414Z,249
2018-08-23T13:58:44.836Z,170
2018-08-23T13:59:47.331Z,249
2018-08-23T14:00:49.464Z,269
2018-08-23T14:01:51.584Z,257
2018-08-23T14:02:53.990Z,271
2018-08-23T14:03:56.125Z,248
2018-08-23T14:04:58.240Z,253
2018-08-23T14:06:00.685Z,275
2018-08-23T14:07:02.797Z,261
2018-08-23T14:08:05.937Z,256
2018-08-23T14:09:08.053Z,249
2018-08-23T14:10:10.176Z,245
2018-08-23T14:11:12.373Z,242
2018-08-23T14:12:14.699Z,122
2018-08-23T14:13:16.828Z,235
2018-08-23T14:14:19.245Z,265
2018-08-23T14:15:21.660Z,264
2018-08-23T14:16:23.786Z,259
2018-08-23T14:17:25.920Z,244
2018-08-23T14:18:28.043Z,224
2018-08-23T14:19:30.570Z,249
2018-08-23T14:20:33.416Z,244
2018-08-23T14:21:35.528Z,227
2018-08-23T14:22:37.652Z,225
2018-08-23T14:23:40.074Z,234
2018-08-23T14:24:42.182Z,244
2018-08-23T14:25:44.303Z,222
2018-08-23T14:26:46.430Z,105
2018-08-23T14:27:48.546Z,229
2018-08-23T14:28:50.683Z,257
2018-08-23T14:29:52.801Z,259
2018-08-23T14:30:54.925Z,239
2018-08-23T14:31:57.042Z,210
2018-08-23T14:32:59.698Z,217
2018-08-23T14:34:01.693Z,185
2018-08-23T14:35:03.817Z,218
2018-08-23T14:36:05.928Z,109
2018-08-23T14:37:08.069Z,148
2018-08-23T14:38:10.492Z,205
2018-08-23T14:39:13.004Z,206
2018-08-23T14:40:15.446Z,208
2018-08-23T14:41:17.583Z,209
2018-08-23T14:42:19.697Z,191
2018-08-23T14:43:22.114Z,210